sensor_id;sensor_type;location;lat;lon;timestamp;temperature;humidity
30999;DHT22;20549;50.042;8.968;2023-07-29T00:01:47;19.80;99.90
30999;DHT22;20549;50.042;8.968;2023-07-29T00:04:14;19.80;99.90
30999;DHT22;20549;50.042;8.968;2023-07-29T00:06:40;19.80;99.90
30999;DHT22;20549;50.042;8.968;2023-07-29T00:09:07;19.80;99.90
30999;DHT22;20549;50.042;8.968;2023-07-29T00:11:34;19.80;99.90
30999;DHT22;20549;50.042;8.968;2023-07-29T00:14:00;19.80;99.90
30999;DHT22;20549;50.042;8.968;2023-07-29T00:16:27;19.80;99.90
30999;DHT22;20549;50.042;8.968;2023-07-29T00:18:53;19.80;99.90
30999;DHT22;20549;50.042;8.968;2023-07-29T00:21:20;19.90;99.90
30999;DHT22;20549;50.042;8.968;2023-07-29T00:23:46;19.90;99.90
30999;DHT22;20549;50.042;8.968;2023-07-29T00:26:13;19.90;99.90
30999;DHT22;20549;50.042;8.968;2023-07-29T00:28:40;19.90;99.90
30999;DHT22;20549;50.042;8.968;2023-07-29T00:31:09;20.00;99.90
30999;DHT22;20549;50.042;8.968;2023-07-29T00:33:36;20.00;99.90
30999;DHT22;20549;50.042;8.968;2023-07-29T00:36:02;20.10;99.90
30999;DHT22;20549;50.042;8.968;2023-07-29T00:38:29;20.10;99.90
30999;DHT22;20549;50.042;8.968;2023-07-29T00:40:58;20.20;99.90
30999;DHT22;20549;50.042;8.968;2023-07-29T00:43:25;20.20;99.90
30999;DHT22;20549;50.042;8.968;2023-07-29T00:45:51;20.20;99.90
30999;DHT22;20549;50.042;8.968;2023-07-29T00:48:18;20.30;99.90
30999;DHT22;20549;50.042;8.968;2023-07-29T00:50:45;20.40;99.90
30999;DHT22;20549;50.042;8.968;2023-07-29T00:53:11;20.40;99.90
30999;DHT22;20549;50.042;8.968;2023-07-29T00:55:38;20.40;99.90
30999;DHT22;20549;50.042;8.968;2023-07-29T00:58:04;20.40;99.90
30999;DHT22;20549;50.042;8.968;2023-07-29T01:00:31;20.50;99.90
30999;DHT22;20549;50.042;8.968;2023-07-29T01:02:58;20.50;99.90
30999;DHT22;20549;50.042;8.968;2023-07-29T01:05:25;20.50;99.90
30999;DHT22;20549;50.042;8.968;2023-07-29T01:08:05;20.60;99.90
30999;DHT22;20549;50.042;8.968;2023-07-29T01:13:23;20.60;99.90
30999;DHT22;20549;50.042;8.968;2023-07-29T01:18:53;20.60;99.90
30999;DHT22;20549;50.042;8.968;2023-07-29T01:20:53;20.60;99.90
30999;DHT22;20549;50.042;8.968;2023-07-29T01:23:25;20.60;99.90
30999;DHT22;20549;50.042;8.968;2023-07-29T01:25:51;20.60;99.90
30999;DHT22;20549;50.042;8.968;2023-07-29T01:28:18;20.60;99.90
30999;DHT22;20549;50.042;8.968;2023-07-29T01:30:44;20.60;99.90
30999;DHT22;20549;50.042;8.968;2023-07-29T01:33:18;20.60;99.90
30999;DHT22;20549;50.042;8.968;2023-07-29T01:35:50;20.70;99.90
30999;DHT22;20549;50.042;8.968;2023-07-29T01:38:13;20.60;99.90
30999;DHT22;20549;50.042;8.968;2023-07-29T01:40:39;20.70;99.90
30999;DHT22;20549;50.042;8.968;2023-07-29T01:43:05;20.70;99.90
30999;DHT22;20549;50.042;8.968;2023-07-29T01:45:32;20.70;99.90
30999;DHT22;20549;50.042;8.968;2023-07-29T01:47:59;20.70;99.90
30999;DHT22;20549;50.042;8.968;2023-07-29T01:50:25;20.70;99.90
30999;DHT22;20549;50.042;8.968;2023-07-29T01:52:52;20.70;99.90
30999;DHT22;20549;50.042;8.968;2023-07-29T01:55:18;20.70;99.90
30999;DHT22;20549;50.042;8.968;2023-07-29T01:57:45;20.70;99.90
30999;DHT22;20549;50.042;8.968;2023-07-29T02:00:12;20.70;99.90
30999;DHT22;20549;50.042;8.968;2023-07-29T02:02:38;20.80;99.90
30999;DHT22;20549;50.042;8.968;2023-07-29T02:05:05;20.80;99.90
30999;DHT22;20549;50.042;8.968;2023-07-29T02:07:31;20.80;99.90
30999;DHT22;20549;50.042;8.968;2023-07-29T02:09:58;20.80;99.90
30999;DHT22;20549;50.042;8.968;2023-07-29T02:12:25;20.80;99.90
30999;DHT22;20549;50.042;8.968;2023-07-29T02:14:51;20.80;99.90
30999;DHT22;20549;50.042;8.968;2023-07-29T02:17:18;20.80;99.90
30999;DHT22;20549;50.042;8.968;2023-07-29T02:19:44;20.80;99.90
30999;DHT22;20549;50.042;8.968;2023-07-29T02:22:13;20.70;99.90
30999;DHT22;20549;50.042;8.968;2023-07-29T02:24:37;20.70;99.90
30999;DHT22;20549;50.042;8.968;2023-07-29T02:27:04;20.70;99.90
30999;DHT22;20549;50.042;8.968;2023-07-29T02:29:31;20.60;99.90
30999;DHT22;20549;50.042;8.968;2023-07-29T02:31:57;20.60;99.90
30999;DHT22;20549;50.042;8.968;2023-07-29T02:34:24;20.60;99.90
30999;DHT22;20549;50.042;8.968;2023-07-29T02:36:50;20.60;99.90
30999;DHT22;20549;50.042;8.968;2023-07-29T02:39:17;20.60;99.90
30999;DHT22;20549;50.042;8.968;2023-07-29T02:41:44;20.60;99.90
30999;DHT22;20549;50.042;8.968;2023-07-29T02:44:10;20.60;99.90
30999;DHT22;20549;50.042;8.968;2023-07-29T02:46:37;20.60;99.90
30999;DHT22;20549;50.042;8.968;2023-07-29T02:49:03;20.70;99.90
30999;DHT22;20549;50.042;8.968;2023-07-29T02:51:30;20.70;99.90
30999;DHT22;20549;50.042;8.968;2023-07-29T02:53:57;20.70;99.90
30999;DHT22;20549;50.042;8.968;2023-07-29T02:56:23;20.80;99.90
30999;DHT22;20549;50.042;8.968;2023-07-29T02:58:50;20.80;99.90
30999;DHT22;20549;50.042;8.968;2023-07-29T03:01:19;20.80;99.90
30999;DHT22;20549;50.042;8.968;2023-07-29T03:03:46;20.80;99.90
30999;DHT22;20549;50.042;8.968;2023-07-29T03:06:13;20.80;99.90
30999;DHT22;20549;50.042;8.968;2023-07-29T03:08:39;20.80;99.90
30999;DHT22;20549;50.042;8.968;2023-07-29T03:11:06;20.80;99.90
30999;DHT22;20549;50.042;8.968;2023-07-29T03:13:32;20.80;99.90
30999;DHT22;20549;50.042;8.968;2023-07-29T03:16:08;20.80;99.90
30999;DHT22;20549;50.042;8.968;2023-07-29T03:18:34;20.80;99.90
30999;DHT22;20549;50.042;8.968;2023-07-29T03:21:01;20.80;99.90
30999;DHT22;20549;50.042;8.968;2023-07-29T03:23:27;20.80;99.90
30999;DHT22;20549;50.042;8.968;2023-07-29T03:25:57;20.80;99.90
30999;DHT22;20549;50.042;8.968;2023-07-29T03:28:27;20.90;99.90
30999;DHT22;20549;50.042;8.968;2023-07-29T03:30:56;20.90;99.90
30999;DHT22;20549;50.042;8.968;2023-07-29T03:33:22;20.90;99.90
30999;DHT22;20549;50.042;8.968;2023-07-29T03:35:49;20.90;99.90
30999;DHT22;20549;50.042;8.968;2023-07-29T03:38:15;20.90;99.90
30999;DHT22;20549;50.042;8.968;2023-07-29T03:40:42;20.90;99.90
30999;DHT22;20549;50.042;8.968;2023-07-29T03:43:08;20.90;99.90
30999;DHT22;20549;50.042;8.968;2023-07-29T03:45:35;21.00;99.90
30999;DHT22;20549;50.042;8.968;2023-07-29T03:48:02;20.90;99.90
30999;DHT22;20549;50.042;8.968;2023-07-29T03:50:29;20.90;99.90
30999;DHT22;20549;50.042;8.968;2023-07-29T03:52:55;20.90;99.90
30999;DHT22;20549;50.042;8.968;2023-07-29T03:55:21;20.90;99.90
30999;DHT22;20549;50.042;8.968;2023-07-29T03:57:48;20.90;99.90
30999;DHT22;20549;50.042;8.968;2023-07-29T04:00:14;20.90;99.90
30999;DHT22;20549;50.042;8.968;2023-07-29T04:02:41;20.80;99.90
30999;DHT22;20549;50.042;8.968;2023-07-29T04:05:08;20.80;99.90
30999;DHT22;20549;50.042;8.968;2023-07-29T04:07:34;20.80;99.90
30999;DHT22;20549;50.042;8.968;2023-07-29T04:10:01;20.80;99.90
30999;DHT22;20549;50.042;8.968;2023-07-29T04:12:27;20.80;99.90
30999;DHT22;20549;50.042;8.968;2023-07-29T04:14:54;20.70;99.90
30999;DHT22;20549;50.042;8.968;2023-07-29T04:17:20;20.70;99.90
30999;DHT22;20549;50.042;8.968;2023-07-29T04:19:47;20.70;99.90
30999;DHT22;20549;50.042;8.968;2023-07-29T04:22:15;20.70;99.90
30999;DHT22;20549;50.042;8.968;2023-07-29T04:24:40;20.70;99.90
30999;DHT22;20549;50.042;8.968;2023-07-29T04:27:07;20.60;99.90
30999;DHT22;20549;50.042;8.968;2023-07-29T04:29:33;20.70;99.90
30999;DHT22;20549;50.042;8.968;2023-07-29T04:32:00;20.70;99.90
30999;DHT22;20549;50.042;8.968;2023-07-29T04:34:27;20.70;99.90
30999;DHT22;20549;50.042;8.968;2023-07-29T04:36:53;20.70;99.90
30999;DHT22;20549;50.042;8.968;2023-07-29T04:39:20;20.70;99.90
30999;DHT22;20549;50.042;8.968;2023-07-29T04:41:46;20.80;99.90
30999;DHT22;20549;50.042;8.968;2023-07-29T04:44:13;20.80;99.90
30999;DHT22;20549;50.042;8.968;2023-07-29T04:46:40;20.80;99.90
30999;DHT22;20549;50.042;8.968;2023-07-29T04:49:06;20.90;99.90
30999;DHT22;20549;50.042;8.968;2023-07-29T04:51:33;20.90;99.90
30999;DHT22;20549;50.042;8.968;2023-07-29T04:53:59;21.00;99.90
30999;DHT22;20549;50.042;8.968;2023-07-29T04:56:26;21.00;99.90
30999;DHT22;20549;50.042;8.968;2023-07-29T04:58:53;21.10;99.90
30999;DHT22;20549;50.042;8.968;2023-07-29T05:01:19;21.10;99.90
30999;DHT22;20549;50.042;8.968;2023-07-29T05:03:46;21.10;99.90
30999;DHT22;20549;50.042;8.968;2023-07-29T05:06:12;21.20;99.90
30999;DHT22;20549;50.042;8.968;2023-07-29T05:08:39;21.20;99.90
30999;DHT22;20549;50.042;8.968;2023-07-29T05:11:05;21.30;99.90
30999;DHT22;20549;50.042;8.968;2023-07-29T05:13:32;21.30;99.90
30999;DHT22;20549;50.042;8.968;2023-07-29T05:15:59;21.40;99.90
30999;DHT22;20549;50.042;8.968;2023-07-29T05:18:25;21.50;99.90
30999;DHT22;20549;50.042;8.968;2023-07-29T05:20:52;21.60;99.90
30999;DHT22;20549;50.042;8.968;2023-07-29T05:23:18;21.70;99.90
30999;DHT22;20549;50.042;8.968;2023-07-29T05:25:45;21.80;99.90
30999;DHT22;20549;50.042;8.968;2023-07-29T05:28:12;21.90;99.90
30999;DHT22;20549;50.042;8.968;2023-07-29T05:30:38;22.00;99.90
30999;DHT22;20549;50.042;8.968;2023-07-29T05:33:05;22.10;99.90
30999;DHT22;20549;50.042;8.968;2023-07-29T05:35:31;22.10;99.90
30999;DHT22;20549;50.042;8.968;2023-07-29T05:37:58;22.20;99.90
30999;DHT22;20549;50.042;8.968;2023-07-29T05:40:25;22.20;99.90
30999;DHT22;20549;50.042;8.968;2023-07-29T05:42:51;22.30;99.90
30999;DHT22;20549;50.042;8.968;2023-07-29T05:45:18;22.30;99.90
30999;DHT22;20549;50.042;8.968;2023-07-29T05:47:44;22.40;99.90
30999;DHT22;20549;50.042;8.968;2023-07-29T05:50:11;22.40;99.90
30999;DHT22;20549;50.042;8.968;2023-07-29T05:52:37;22.50;99.90
30999;DHT22;20549;50.042;8.968;2023-07-29T05:55:04;22.60;99.90
30999;DHT22;20549;50.042;8.968;2023-07-29T05:57:31;22.70;99.90
30999;DHT22;20549;50.042;8.968;2023-07-29T05:59:57;22.70;99.90
30999;DHT22;20549;50.042;8.968;2023-07-29T06:02:24;22.80;99.90
30999;DHT22;20549;50.042;8.968;2023-07-29T06:04:50;22.90;99.90
30999;DHT22;20549;50.042;8.968;2023-07-29T06:07:17;23.00;99.90
30999;DHT22;20549;50.042;8.968;2023-07-29T06:09:44;23.00;99.90
30999;DHT22;20549;50.042;8.968;2023-07-29T06:12:10;23.10;99.90
30999;DHT22;20549;50.042;8.968;2023-07-29T06:14:37;23.10;99.90
30999;DHT22;20549;50.042;8.968;2023-07-29T06:17:03;23.20;99.90
30999;DHT22;20549;50.042;8.968;2023-07-29T06:19:30;23.20;99.90
30999;DHT22;20549;50.042;8.968;2023-07-29T06:21:57;23.30;99.90
30999;DHT22;20549;50.042;8.968;2023-07-29T06:24:23;23.30;99.90
30999;DHT22;20549;50.042;8.968;2023-07-29T06:26:50;23.30;99.90
30999;DHT22;20549;50.042;8.968;2023-07-29T06:29:16;23.40;99.90
30999;DHT22;20549;50.042;8.968;2023-07-29T06:31:43;23.40;99.90
30999;DHT22;20549;50.042;8.968;2023-07-29T06:34:10;23.50;99.90
30999;DHT22;20549;50.042;8.968;2023-07-29T06:36:36;23.50;99.90
30999;DHT22;20549;50.042;8.968;2023-07-29T06:39:03;23.50;99.90
30999;DHT22;20549;50.042;8.968;2023-07-29T06:41:29;23.50;99.90
30999;DHT22;20549;50.042;8.968;2023-07-29T06:43:56;23.40;99.90
30999;DHT22;20549;50.042;8.968;2023-07-29T06:46:22;23.40;99.90
30999;DHT22;20549;50.042;8.968;2023-07-29T06:48:49;23.40;99.90
30999;DHT22;20549;50.042;8.968;2023-07-29T06:51:16;23.30;99.90
30999;DHT22;20549;50.042;8.968;2023-07-29T06:53:42;23.30;99.90
30999;DHT22;20549;50.042;8.968;2023-07-29T06:56:09;23.30;99.90
30999;DHT22;20549;50.042;8.968;2023-07-29T06:58:35;23.20;99.90
30999;DHT22;20549;50.042;8.968;2023-07-29T07:01:02;23.20;99.90
30999;DHT22;20549;50.042;8.968;2023-07-29T07:03:29;23.20;99.90
30999;DHT22;20549;50.042;8.968;2023-07-29T07:05:55;23.20;99.90
30999;DHT22;20549;50.042;8.968;2023-07-29T07:08:22;23.20;99.90
30999;DHT22;20549;50.042;8.968;2023-07-29T07:10:48;23.20;99.90
30999;DHT22;20549;50.042;8.968;2023-07-29T07:13:15;23.20;99.90
30999;DHT22;20549;50.042;8.968;2023-07-29T07:15:42;23.20;99.90
30999;DHT22;20549;50.042;8.968;2023-07-29T07:18:08;23.20;99.90
30999;DHT22;20549;50.042;8.968;2023-07-29T07:20:35;23.20;99.90
30999;DHT22;20549;50.042;8.968;2023-07-29T07:23:01;23.30;99.90
30999;DHT22;20549;50.042;8.968;2023-07-29T07:25:28;23.30;99.90
30999;DHT22;20549;50.042;8.968;2023-07-29T07:27:54;23.30;99.90
30999;DHT22;20549;50.042;8.968;2023-07-29T07:30:21;23.30;99.90
30999;DHT22;20549;50.042;8.968;2023-07-29T07:32:48;23.30;99.90
30999;DHT22;20549;50.042;8.968;2023-07-29T07:35:14;23.30;99.90
30999;DHT22;20549;50.042;8.968;2023-07-29T07:37:41;23.20;99.90
30999;DHT22;20549;50.042;8.968;2023-07-29T07:40:07;23.20;99.90
30999;DHT22;20549;50.042;8.968;2023-07-29T07:42:34;23.20;99.90
30999;DHT22;20549;50.042;8.968;2023-07-29T07:45:01;23.20;99.90
30999;DHT22;20549;50.042;8.968;2023-07-29T07:47:27;23.10;99.90
30999;DHT22;20549;50.042;8.968;2023-07-29T07:49:54;23.00;99.90
30999;DHT22;20549;50.042;8.968;2023-07-29T07:52:20;23.00;99.90
30999;DHT22;20549;50.042;8.968;2023-07-29T07:54:51;23.00;99.90
30999;DHT22;20549;50.042;8.968;2023-07-29T07:57:14;22.90;99.90
30999;DHT22;20549;50.042;8.968;2023-07-29T07:59:40;22.90;99.90
30999;DHT22;20549;50.042;8.968;2023-07-29T08:02:07;22.90;99.90
30999;DHT22;20549;50.042;8.968;2023-07-29T08:04:33;22.80;99.90
30999;DHT22;20549;50.042;8.968;2023-07-29T08:07:00;22.80;99.90
30999;DHT22;20549;50.042;8.968;2023-07-29T08:09:26;22.80;99.90
30999;DHT22;20549;50.042;8.968;2023-07-29T08:11:53;22.80;99.90
30999;DHT22;20549;50.042;8.968;2023-07-29T08:14:20;22.80;99.90
30999;DHT22;20549;50.042;8.968;2023-07-29T08:16:46;22.80;99.90
30999;DHT22;20549;50.042;8.968;2023-07-29T08:19:13;22.90;99.90
30999;DHT22;20549;50.042;8.968;2023-07-29T08:21:39;23.00;99.90
30999;DHT22;20549;50.042;8.968;2023-07-29T08:24:06;23.10;99.90
30999;DHT22;20549;50.042;8.968;2023-07-29T08:26:33;23.20;99.90
30999;DHT22;20549;50.042;8.968;2023-07-29T08:28:59;23.30;99.90
30999;DHT22;20549;50.042;8.968;2023-07-29T08:31:26;23.50;99.90
30999;DHT22;20549;50.042;8.968;2023-07-29T08:33:52;23.60;99.90
30999;DHT22;20549;50.042;8.968;2023-07-29T08:36:19;23.70;99.90
30999;DHT22;20549;50.042;8.968;2023-07-29T08:38:46;23.80;99.90
30999;DHT22;20549;50.042;8.968;2023-07-29T08:44:16;24.10;99.90
30999;DHT22;20549;50.042;8.968;2023-07-29T08:46:18;24.30;99.90
30999;DHT22;20549;50.042;8.968;2023-07-29T08:48:44;24.50;99.90
30999;DHT22;20549;50.042;8.968;2023-07-29T08:51:11;24.70;99.90
30999;DHT22;20549;50.042;8.968;2023-07-29T08:53:37;25.10;99.90
30999;DHT22;20549;50.042;8.968;2023-07-29T08:56:04;25.50;99.90
30999;DHT22;20549;50.042;8.968;2023-07-29T08:58:30;25.90;99.90
30999;DHT22;20549;50.042;8.968;2023-07-29T09:00:57;26.40;99.90
30999;DHT22;20549;50.042;8.968;2023-07-29T09:03:23;26.80;99.90
30999;DHT22;20549;50.042;8.968;2023-07-29T09:05:50;27.30;99.90
30999;DHT22;20549;50.042;8.968;2023-07-29T09:08:16;27.90;99.90
30999;DHT22;20549;50.042;8.968;2023-07-29T09:10:43;28.40;99.90
30999;DHT22;20549;50.042;8.968;2023-07-29T09:13:10;29.10;99.90
30999;DHT22;20549;50.042;8.968;2023-07-29T09:15:36;29.60;99.90
30999;DHT22;20549;50.042;8.968;2023-07-29T09:18:09;30.00;99.90
30999;DHT22;20549;50.042;8.968;2023-07-29T09:20:35;30.20;97.50
30999;DHT22;20549;50.042;8.968;2023-07-29T09:23:02;30.40;95.90
30999;DHT22;20549;50.042;8.968;2023-07-29T09:25:29;30.60;95.20
30999;DHT22;20549;50.042;8.968;2023-07-29T09:27:59;30.70;94.40
30999;DHT22;20549;50.042;8.968;2023-07-29T09:30:25;30.80;94.10
30999;DHT22;20549;50.042;8.968;2023-07-29T09:32:58;31.00;93.40
30999;DHT22;20549;50.042;8.968;2023-07-29T09:35:26;31.30;93.30
30999;DHT22;20549;50.042;8.968;2023-07-29T09:37:51;31.70;93.70
30999;DHT22;20549;50.042;8.968;2023-07-29T09:40:17;32.20;94.30
30999;DHT22;20549;50.042;8.968;2023-07-29T09:42:55;32.70;93.60
30999;DHT22;20549;50.042;8.968;2023-07-29T09:45:26;33.40;91.60
30999;DHT22;20549;50.042;8.968;2023-07-29T09:47:56;34.00;86.40
30999;DHT22;20549;50.042;8.968;2023-07-29T09:50:18;34.50;80.50
30999;DHT22;20549;50.042;8.968;2023-07-29T09:52:45;34.90;79.40
30999;DHT22;20549;50.042;8.968;2023-07-29T09:55:12;35.20;78.60
30999;DHT22;20549;50.042;8.968;2023-07-29T09:57:38;35.60;76.20
30999;DHT22;20549;50.042;8.968;2023-07-29T10:00:05;35.90;73.50
30999;DHT22;20549;50.042;8.968;2023-07-29T10:02:31;36.30;72.20
30999;DHT22;20549;50.042;8.968;2023-07-29T10:04:58;36.60;71.80
30999;DHT22;20549;50.042;8.968;2023-07-29T10:07:25;36.70;69.00
30999;DHT22;20549;50.042;8.968;2023-07-29T10:09:52;36.90;66.60
30999;DHT22;20549;50.042;8.968;2023-07-29T10:12:18;36.90;64.90
30999;DHT22;20549;50.042;8.968;2023-07-29T10:14:44;36.70;63.10
30999;DHT22;20549;50.042;8.968;2023-07-29T10:17:11;36.50;62.30
30999;DHT22;20549;50.042;8.968;2023-07-29T10:19:37;36.20;62.20
30999;DHT22;20549;50.042;8.968;2023-07-29T10:22:04;35.90;62.10
30999;DHT22;20549;50.042;8.968;2023-07-29T10:24:31;35.70;63.10
30999;DHT22;20549;50.042;8.968;2023-07-29T10:26:58;35.50;62.60
30999;DHT22;20549;50.042;8.968;2023-07-29T10:29:24;35.30;62.10
30999;DHT22;20549;50.042;8.968;2023-07-29T10:31:53;35.20;61.70
30999;DHT22;20549;50.042;8.968;2023-07-29T10:34:20;35.10;61.00
30999;DHT22;20549;50.042;8.968;2023-07-29T10:36:46;34.90;60.80
30999;DHT22;20549;50.042;8.968;2023-07-29T10:39:13;34.70;59.90
30999;DHT22;20549;50.042;8.968;2023-07-29T10:42:01;34.50;59.50
30999;DHT22;20549;50.042;8.968;2023-07-29T10:47:21;34.10;59.50
30999;DHT22;20549;50.042;8.968;2023-07-29T10:49:50;33.90;59.40
30999;DHT22;20549;50.042;8.968;2023-07-29T10:52:28;33.60;59.50
30999;DHT22;20549;50.042;8.968;2023-07-29T10:54:43;33.40;59.10
30999;DHT22;20549;50.042;8.968;2023-07-29T10:57:13;33.20;59.30
30999;DHT22;20549;50.042;8.968;2023-07-29T10:59:36;33.00;59.40
30999;DHT22;20549;50.042;8.968;2023-07-29T11:02:03;32.80;59.60
30999;DHT22;20549;50.042;8.968;2023-07-29T11:04:29;32.60;59.70
30999;DHT22;20549;50.042;8.968;2023-07-29T11:09:40;32.40;60.60
30999;DHT22;20549;50.042;8.968;2023-07-29T11:12:52;32.40;60.80
30999;DHT22;20549;50.042;8.968;2023-07-29T11:14:33;32.50;61.20
30999;DHT22;20549;50.042;8.968;2023-07-29T11:16:59;32.50;60.70
30999;DHT22;20549;50.042;8.968;2023-07-29T11:19:26;32.60;60.70
30999;DHT22;20549;50.042;8.968;2023-07-29T11:21:52;32.70;60.20
30999;DHT22;20549;50.042;8.968;2023-07-29T11:24:19;32.80;59.70
30999;DHT22;20549;50.042;8.968;2023-07-29T11:26:48;32.80;59.40
30999;DHT22;20549;50.042;8.968;2023-07-29T11:29:15;32.90;59.40
30999;DHT22;20549;50.042;8.968;2023-07-29T11:31:41;32.80;59.00
30999;DHT22;20549;50.042;8.968;2023-07-29T11:34:08;32.90;58.90
30999;DHT22;20549;50.042;8.968;2023-07-29T11:36:35;32.90;58.90
30999;DHT22;20549;50.042;8.968;2023-07-29T11:39:08;32.90;59.00
30999;DHT22;20549;50.042;8.968;2023-07-29T11:41:28;32.90;59.20
30999;DHT22;20549;50.042;8.968;2023-07-29T11:43:54;32.90;59.00
30999;DHT22;20549;50.042;8.968;2023-07-29T11:46:21;33.00;58.60
30999;DHT22;20549;50.042;8.968;2023-07-29T11:48:48;33.00;58.30
30999;DHT22;20549;50.042;8.968;2023-07-29T11:51:14;33.00;59.10
30999;DHT22;20549;50.042;8.968;2023-07-29T11:53:41;33.00;58.10
30999;DHT22;20549;50.042;8.968;2023-07-29T11:56:07;33.00;58.00
30999;DHT22;20549;50.042;8.968;2023-07-29T11:58:34;33.00;57.70
30999;DHT22;20549;50.042;8.968;2023-07-29T12:01:01;33.10;57.60
30999;DHT22;20549;50.042;8.968;2023-07-29T12:03:27;33.00;58.20
30999;DHT22;20549;50.042;8.968;2023-07-29T12:05:54;33.00;57.40
30999;DHT22;20549;50.042;8.968;2023-07-29T12:08:20;33.00;57.60
30999;DHT22;20549;50.042;8.968;2023-07-29T12:10:47;33.10;58.20
30999;DHT22;20549;50.042;8.968;2023-07-29T12:13:14;33.00;57.90
30999;DHT22;20549;50.042;8.968;2023-07-29T12:15:40;32.90;57.40
30999;DHT22;20549;50.042;8.968;2023-07-29T12:18:07;32.80;57.30
30999;DHT22;20549;50.042;8.968;2023-07-29T12:20:33;32.70;57.60
30999;DHT22;20549;50.042;8.968;2023-07-29T12:23:00;32.60;57.70
30999;DHT22;20549;50.042;8.968;2023-07-29T12:25:29;32.40;57.80
30999;DHT22;20549;50.042;8.968;2023-07-29T12:27:56;32.20;57.60
30999;DHT22;20549;50.042;8.968;2023-07-29T12:30:22;32.00;57.80
30999;DHT22;20549;50.042;8.968;2023-07-29T12:32:49;31.80;58.20
30999;DHT22;20549;50.042;8.968;2023-07-29T12:35:16;31.60;58.60
30999;DHT22;20549;50.042;8.968;2023-07-29T12:37:42;31.40;59.10
30999;DHT22;20549;50.042;8.968;2023-07-29T12:40:21;31.20;59.30
30999;DHT22;20549;50.042;8.968;2023-07-29T12:42:47;31.20;59.70
30999;DHT22;20549;50.042;8.968;2023-07-29T12:45:15;31.10;59.90
30999;DHT22;20549;50.042;8.968;2023-07-29T12:47:40;31.00;60.10
30999;DHT22;20549;50.042;8.968;2023-07-29T12:50:07;31.00;60.20
30999;DHT22;20549;50.042;8.968;2023-07-29T12:52:33;30.90;60.40
30999;DHT22;20549;50.042;8.968;2023-07-29T12:55:00;30.90;60.70
30999;DHT22;20549;50.042;8.968;2023-07-29T12:57:27;30.80;61.20
30999;DHT22;20549;50.042;8.968;2023-07-29T12:59:53;30.80;61.30
30999;DHT22;20549;50.042;8.968;2023-07-29T13:02:20;30.80;61.70
30999;DHT22;20549;50.042;8.968;2023-07-29T13:04:46;30.70;61.50
30999;DHT22;20549;50.042;8.968;2023-07-29T13:07:13;30.70;61.30
30999;DHT22;20549;50.042;8.968;2023-07-29T13:09:40;30.70;61.50
30999;DHT22;20549;50.042;8.968;2023-07-29T13:12:06;30.60;61.40
30999;DHT22;20549;50.042;8.968;2023-07-29T13:14:33;30.60;61.30
30999;DHT22;20549;50.042;8.968;2023-07-29T13:16:59;30.60;61.00
30999;DHT22;20549;50.042;8.968;2023-07-29T13:19:26;30.60;60.40
30999;DHT22;20549;50.042;8.968;2023-07-29T13:21:53;30.60;60.00
30999;DHT22;20549;50.042;8.968;2023-07-29T13:24:19;30.60;59.60
30999;DHT22;20549;50.042;8.968;2023-07-29T13:26:46;30.60;59.50
30999;DHT22;20549;50.042;8.968;2023-07-29T13:29:12;30.60;59.60
30999;DHT22;20549;50.042;8.968;2023-07-29T13:31:39;30.60;59.60
30999;DHT22;20549;50.042;8.968;2023-07-29T13:34:06;30.70;58.20
30999;DHT22;20549;50.042;8.968;2023-07-29T13:36:32;30.80;58.00
30999;DHT22;20549;50.042;8.968;2023-07-29T13:38:59;30.80;57.40
30999;DHT22;20549;50.042;8.968;2023-07-29T13:41:25;30.90;57.20
30999;DHT22;20549;50.042;8.968;2023-07-29T13:43:52;31.00;56.70
30999;DHT22;20549;50.042;8.968;2023-07-29T13:46:18;31.00;55.90
30999;DHT22;20549;50.042;8.968;2023-07-29T13:48:45;31.10;55.30
30999;DHT22;20549;50.042;8.968;2023-07-29T13:51:12;31.10;54.90
30999;DHT22;20549;50.042;8.968;2023-07-29T13:53:38;31.20;54.80
30999;DHT22;20549;50.042;8.968;2023-07-29T13:56:05;31.20;54.60
30999;DHT22;20549;50.042;8.968;2023-07-29T13:58:31;31.20;54.90
30999;DHT22;20549;50.042;8.968;2023-07-29T14:00:58;31.30;54.40
30999;DHT22;20549;50.042;8.968;2023-07-29T14:03:25;31.30;54.20
30999;DHT22;20549;50.042;8.968;2023-07-29T14:05:51;31.30;54.00
30999;DHT22;20549;50.042;8.968;2023-07-29T14:08:18;31.30;53.80
30999;DHT22;20549;50.042;8.968;2023-07-29T14:10:44;31.20;53.80
30999;DHT22;20549;50.042;8.968;2023-07-29T14:13:11;31.30;53.70
30999;DHT22;20549;50.042;8.968;2023-07-29T14:15:38;31.30;53.70
30999;DHT22;20549;50.042;8.968;2023-07-29T14:18:04;31.30;53.30
30999;DHT22;20549;50.042;8.968;2023-07-29T14:20:31;31.30;53.20
30999;DHT22;20549;50.042;8.968;2023-07-29T14:22:57;31.30;52.60
30999;DHT22;20549;50.042;8.968;2023-07-29T14:25:24;31.30;52.60
30999;DHT22;20549;50.042;8.968;2023-07-29T14:27:50;31.40;52.50
30999;DHT22;20549;50.042;8.968;2023-07-29T14:30:17;31.40;52.50
30999;DHT22;20549;50.042;8.968;2023-07-29T14:32:44;31.40;52.10
30999;DHT22;20549;50.042;8.968;2023-07-29T14:35:10;31.40;51.90
30999;DHT22;20549;50.042;8.968;2023-07-29T14:37:37;31.30;51.60
30999;DHT22;20549;50.042;8.968;2023-07-29T14:40:03;31.30;51.40
30999;DHT22;20549;50.042;8.968;2023-07-29T14:42:30;31.20;51.40
30999;DHT22;20549;50.042;8.968;2023-07-29T14:44:57;31.10;51.50
30999;DHT22;20549;50.042;8.968;2023-07-29T14:47:23;31.10;51.50
30999;DHT22;20549;50.042;8.968;2023-07-29T14:49:50;31.10;51.60
30999;DHT22;20549;50.042;8.968;2023-07-29T14:52:16;31.00;51.80
30999;DHT22;20549;50.042;8.968;2023-07-29T14:54:43;31.00;51.90
30999;DHT22;20549;50.042;8.968;2023-07-29T14:57:10;30.90;51.60
30999;DHT22;20549;50.042;8.968;2023-07-29T14:59:36;30.80;51.80
30999;DHT22;20549;50.042;8.968;2023-07-29T15:02:03;30.80;51.80
30999;DHT22;20549;50.042;8.968;2023-07-29T15:04:29;30.70;51.70
30999;DHT22;20549;50.042;8.968;2023-07-29T15:06:56;30.60;51.70
30999;DHT22;20549;50.042;8.968;2023-07-29T15:09:23;30.50;51.70
30999;DHT22;20549;50.042;8.968;2023-07-29T15:11:49;30.50;51.90
30999;DHT22;20549;50.042;8.968;2023-07-29T15:14:16;30.40;52.20
30999;DHT22;20549;50.042;8.968;2023-07-29T15:16:42;30.40;52.20
30999;DHT22;20549;50.042;8.968;2023-07-29T15:19:09;30.40;52.00
30999;DHT22;20549;50.042;8.968;2023-07-29T15:21:35;30.40;52.00
30999;DHT22;20549;50.042;8.968;2023-07-29T15:24:02;30.40;51.70
30999;DHT22;20549;50.042;8.968;2023-07-29T15:26:29;30.30;51.60
30999;DHT22;20549;50.042;8.968;2023-07-29T15:28:55;30.20;51.80
30999;DHT22;20549;50.042;8.968;2023-07-29T15:31:22;30.20;51.90
30999;DHT22;20549;50.042;8.968;2023-07-29T15:33:48;30.20;52.00
30999;DHT22;20549;50.042;8.968;2023-07-29T15:36:15;30.10;51.90
30999;DHT22;20549;50.042;8.968;2023-07-29T15:38:42;30.10;51.90
30999;DHT22;20549;50.042;8.968;2023-07-29T15:41:08;30.00;51.80